Time;durP1;ratioP1;P1;durP2;ratioP2;P2;SDS_P1;SDS_P2;PMS_P1;PMS_P2;Temp;Humidity;BMP_temperature;BMP_pressure;BME280_temperature;BME280_humidity;BME280_pressure;Samples;Min_cycle;Max_cycle;Signal;HPM_P1;HPM_P2
2022/04/15 00:01:24;;;;;;;2.22;2.03;;;;;;;4.91;65.81;97024.41;4993795;28;20080;-64
2022/04/15 00:03:50;;;;;;;4.18;2.13;;;;;;;4.84;65.67;97026.16;4993697;28;20030;-64
2022/04/15 00:06:17;;;;;;;4.28;2.10;;;;;;;4.72;65.65;97024.50;4993790;28;20117;-64
2022/04/15 00:08:43;;;;;;;3.50;2.47;;;;;;;4.66;65.58;97024.56;4993669;28;20353;-64
2022/04/15 00:11:09;;;;;;;4.43;2.65;;;;;;;4.70;66.09;97028.88;4993601;28;20026;-64
2022/04/15 00:13:35;;;;;;;4.65;1.90;;;;;;;4.77;65.86;97027.06;4993614;28;20027;-64
2022/04/15 00:16:07;;;;;;;6.00;2.20;;;;;;;4.78;65.72;97027.06;4993703;28;20018;-65
2022/04/15 00:18:34;;;;;;;3.40;2.28;;;;;;;4.75;65.13;97021.91;4993598;28;20033;-64
2022/04/15 00:21:00;;;;;;;2.40;2.20;;;;;;;4.68;65.53;97015.06;4993689;28;20026;-64
2022/04/15 00:23:26;;;;;;;4.00;2.00;;;;;;;4.70;65.86;97013.31;4993596;28;20077;-64
2022/04/15 00:25:52;;;;;;;6.30;2.30;;;;;;;4.76;65.25;97015.84;4995721;28;20031;-64
2022/04/15 00:28:18;;;;;;;3.45;2.10;;;;;;;4.79;65.46;97010.63;4997447;28;20101;-63
2022/04/15 00:30:44;;;;;;;1.70;1.60;;;;;;;4.80;65.27;97012.38;4980138;28;20018;-64
2022/04/15 00:33:11;;;;;;;2.08;1.90;;;;;;;4.72;65.56;97011.56;4997447;28;20038;-63
2022/04/15 00:35:36;;;;;;;4.85;2.17;;;;;;;4.72;65.85;97008.97;4997389;28;20492;-64
2022/04/15 00:38:03;;;;;;;2.75;1.90;;;;;;;4.73;66.20;97007.25;4997417;28;20026;-64
2022/04/15 00:40:28;;;;;;;4.63;2.35;;;;;;;4.74;65.85;97004.66;4997173;28;20134;-63
2022/04/15 00:42:54;;;;;;;2.97;2.35;;;;;;;4.78;66.38;97008.06;4997402;28;20050;-64
2022/04/15 00:45:20;;;;;;;7.00;2.03;;;;;;;4.76;65.88;97008.06;4997315;28;20025;-64
2022/04/15 00:47:55;;;;;;;3.70;2.00;;;;;;;4.62;66.16;97007.31;4997322;28;20476;-64
2022/04/15 00:50:26;;;;;;;4.28;2.10;;;;;;;4.67;66.51;97005.56;4997047;28;20026;-64
2022/04/15 00:52:54;;;;;;;4.22;1.88;;;;;;;4.69;66.60;97008.97;4997230;28;20030;-64
2022/04/15 00:55:22;;;;;;;5.13;2.35;;;;;;;4.66;66.28;97009.88;4997191;28;20027;-64
2022/04/15 00:57:57;;;;;;;3.33;2.30;;;;;;;4.70;65.80;97007.25;4979555;28;20046;-64
2022/04/15 01:00:24;;;;;;;4.82;2.40;;;;;;;4.65;66.25;97004.69;4997038;28;20057;-63
2022/04/15 01:02:50;;;;;;;4.97;2.10;;;;;;;4.53;65.96;97009.09;4996977;28;20422;-63
2022/04/15 01:05:16;;;;;;;4.35;1.90;;;;;;;4.62;66.65;97010.78;4996844;28;20058;-64
2022/04/15 01:07:46;;;;;;;3.20;2.22;;;;;;;4.61;65.87;97006.44;4996878;28;20428;-64
2022/04/15 01:10:13;;;;;;;2.92;2.30;;;;;;;4.56;66.04;97013.41;4996835;28;20026;-64
2022/04/15 01:12:41;;;;;;;4.18;2.17;;;;;;;4.60;66.39;97002.13;4996748;28;20065;-64
2022/04/15 01:15:15;;;;;;;2.97;2.25;;;;;;;4.58;66.75;96998.72;4996679;28;20076;-64
2022/04/15 01:17:41;;;;;;;3.22;2.13;;;;;;;4.58;66.61;97001.31;4996813;28;20026;-64
2022/04/15 01:20:09;;;;;;;4.45;2.45;;;;;;;4.61;66.41;96993.47;4996581;28;20023;-64
2022/04/15 01:22:47;;;;;;;4.13;2.30;;;;;;;4.59;66.05;96996.97;4996508;28;20407;-64
2022/04/15 01:25:14;;;;;;;2.65;2.15;;;;;;;4.39;66.29;96991.03;4996402;28;20108;-64
2022/04/15 01:27:46;;;;;;;2.42;2.22;;;;;;;4.45;67.08;96994.47;4996407;28;20034;-64
2022/04/15 01:30:19;;;;;;;3.47;2.47;;;;;;;4.38;66.93;96996.22;4996262;28;20085;-64
2022/04/15 01:32:47;;;;;;;3.78;2.20;;;;;;;4.35;66.78;96998.84;4996493;28;20523;-63
2022/04/15 01:35:16;;;;;;;3.85;1.95;;;;;;;4.33;67.47;96991.06;4996327;28;20030;-64
2022/04/15 01:37:43;;;;;;;3.15;2.10;;;;;;;4.27;67.26;96989.38;4996045;28;20390;-64
2022/04/15 01:40:11;;;;;;;4.47;2.78;;;;;;;4.30;67.81;96988.50;4996028;28;20074;-64
2022/04/15 01:42:38;;;;;;;3.75;2.05;;;;;;;4.24;66.50;96983.38;4996259;28;20486;-64
2022/04/15 01:45:04;;;;;;;2.35;2.00;;;;;;;4.10;67.22;96983.44;4996345;28;20523;-64
2022/04/15 01:47:30;;;;;;;3.25;2.22;;;;;;;4.10;67.70;96983.44;4996069;28;20113;-64
2022/04/15 01:49:56;;;;;;;4.70;2.97;;;;;;;4.16;67.94;96984.25;4995960;28;20603;-64
2022/04/15 01:52:22;;;;;;;2.83;2.03;;;;;;;4.07;67.63;96981.72;4995984;28;20019;-64
2022/04/15 01:54:48;;;;;;;5.90;2.38;;;;;;;4.02;67.71;96983.47;4995999;28;20474;-64
2022/04/15 01:57:14;;;;;;;3.13;2.47;;;;;;;4.02;68.16;96978.28;4996014;28;20044;-64
2022/04/15 01:59:41;;;;;;;6.88;2.20;;;;;;;3.95;67.71;96972.28;4995832;28;20026;-64
2022/04/15 02:02:06;;;;;;;4.15;2.40;;;;;;;3.82;67.78;96976.66;4995937;28;20027;-63
2022/04/15 02:04:32;;;;;;;3.50;2.38;;;;;;;3.86;68.12;96974.91;4995801;28;20033;-63
2022/04/15 02:06:58;;;;;;;4.60;2.17;;;;;;;3.75;68.13;96978.41;4995918;28;20050;-63
2022/04/15 02:09:23;;;;;;;4.70;2.25;;;;;;;3.71;68.13;96973.25;4995792;28;20057;-63
2022/04/15 02:11:49;;;;;;;3.35;1.98;;;;;;;3.74;67.76;96973.25;4995599;28;20038;-64
2022/04/15 02:14:17;;;;;;;4.03;2.25;;;;;;;3.76;67.95;96971.50;4995684;28;20033;-64
2022/04/15 02:16:43;;;;;;;3.70;2.22;;;;;;;3.75;67.63;96970.66;4995560;28;20022;-64
2022/04/15 02:19:08;;;;;;;5.00;2.13;;;;;;;3.73;67.79;96971.53;4995753;28;20045;-64
2022/04/15 02:21:34;;;;;;;2.63;2.40;;;;;;;3.69;67.94;96974.97;4995522;28;20346;-64
2022/04/15 02:24:00;;;;;;;3.08;2.17;;;;;;;3.65;67.86;96967.22;4995304;28;20019;-63
2022/04/15 02:26:26;;;;;;;4.07;2.60;;;;;;;3.60;68.26;96963.81;4995379;28;20029;-64
2022/04/15 02:28:52;;;;;;;2.83;2.22;;;;;;;3.50;68.57;96957.81;4995245;28;20365;-62
2022/04/15 02:31:17;;;;;;;3.35;2.22;;;;;;;3.48;69.01;96969.88;4995358;28;20025;-64
2022/04/15 02:33:43;;;;;;;3.00;1.95;;;;;;;3.54;69.01;96966.41;4977778;28;20033;-65
2022/04/15 02:36:09;;;;;;;3.05;2.08;;;;;;;3.57;68.76;96973.28;4995306;28;20524;-64
2022/04/15 02:38:35;;;;;;;2.53;2.15;;;;;;;3.52;68.77;96966.41;4995201;28;20477;-64
2022/04/15 02:41:03;;;;;;;3.10;2.30;;;;;;;3.48;69.04;96967.28;4994964;28;20070;-63
2022/04/15 02:43:31;;;;;;;6.10;2.08;;;;;;;3.43;68.69;96960.41;4995099;28;20113;-64
2022/04/15 02:46:01;;;;;;;2.10;1.83;;;;;;;3.37;69.16;96956.97;4994973;28;20041;-64
2022/04/15 02:48:28;;;;;;;3.38;1.85;;;;;;;3.34;68.97;96963.88;4994199;28;20117;-64
2022/04/15 02:50:54;;;;;;;3.10;2.50;;;;;;;3.31;69.09;96956.97;4994970;28;20388;-64
2022/04/15 02:53:22;;;;;;;3.25;2.50;;;;;;;3.20;69.46;96966.47;4994936;28;20038;-63
2022/04/15 02:55:47;;;;;;;5.38;2.20;;;;;;;3.07;70.11;96963.06;4994957;28;20038;-64
2022/04/15 02:58:13;;;;;;;4.68;2.30;;;;;;;3.02;70.53;96963.06;4994862;28;20044;-63
2022/04/15 03:00:38;;;;;;;6.63;2.10;;;;;;;3.09;70.40;96959.59;4994754;28;20546;-63
2022/04/15 03:03:04;;;;;;;4.18;2.20;;;;;;;3.09;70.56;96961.31;4994649;28;20523;-63
2022/04/15 03:05:30;;;;;;;4.93;2.17;;;;;;;3.07;70.05;96958.72;4994724;28;20031;-64
2022/04/15 03:07:56;;;;;;;3.47;2.67;;;;;;;2.97;70.52;96957.03;4994697;28;20047;-63
2022/04/15 03:10:22;;;;;;;6.15;2.53;;;;;;;3.05;70.99;96960.47;4994516;28;20030;-64
2022/04/15 03:12:48;;;;;;;2.35;2.00;;;;;;;3.11;70.34;96959.59;4994405;28;20427;-64
2022/04/15 03:15:13;;;;;;;3.50;2.55;;;;;;;3.09;70.38;96948.41;4994701;28;20105;-64
2022/04/15 03:17:39;;;;;;;3.55;2.25;;;;;;;3.12;70.43;96950.97;4994666;28;20026;-64
2022/04/15 03:20:06;;;;;;;3.75;2.28;;;;;;;3.09;70.10;96961.31;4994332;28;20041;-64
2022/04/15 03:22:40;;;;;;;3.47;2.70;;;;;;;2.96;70.41;96952.72;4994306;28;20022;-63
2022/04/15 03:25:08;;;;;;;3.30;2.30;;;;;;;2.91;70.68;96955.31;4994205;28;20026;-64
2022/04/15 03:27:34;;;;;;;3.38;2.40;;;;;;;2.94;70.93;96950.16;4994259;28;20041;-64
2022/04/15 03:30:00;;;;;;;2.88;2.58;;;;;;;3.01;70.90;96946.69;4994282;28;20018;-64
2022/04/15 03:32:26;;;;;;;5.35;2.55;;;;;;;3.03;70.50;96944.97;4994282;28;20025;-64
2022/04/15 03:34:52;;;;;;;2.88;2.25;;;;;;;3.06;70.79;96948.41;4994220;28;20026;-64
2022/04/15 03:37:18;;;;;;;4.00;2.50;;;;;;;3.04;70.74;96948.41;4994204;28;20077;-64
2022/04/15 03:39:43;;;;;;;4.03;2.38;;;;;;;3.08;70.89;96950.13;4993811;28;20050;-64
2022/04/15 03:42:09;;;;;;;5.72;2.67;;;;;;;3.08;70.69;96950.13;4994057;28;20030;-64
2022/04/15 03:44:35;;;;;;;3.40;2.20;;;;;;;3.13;70.59;96944.97;4994083;28;20022;-62
2022/04/15 03:47:01;;;;;;;6.93;2.72;;;;;;;3.07;70.64;96956.16;4994136;28;20054;-64
2022/04/15 03:49:27;;;;;;;4.22;2.90;;;;;;;3.08;70.97;96954.44;4993797;28;20084;-63
2022/04/15 03:51:53;;;;;;;3.65;2.63;;;;;;;3.10;70.98;96947.56;4993975;28;20473;-64
2022/04/15 03:54:18;;;;;;;4.90;3.15;;;;;;;3.10;71.33;96944.97;4993989;28;20068;-65
2022/04/15 03:56:46;;;;;;;7.70;3.25;;;;;;;3.09;71.42;96954.44;4993898;28;20026;-64
2022/04/15 03:59:12;;;;;;;8.57;2.95;;;;;;;3.09;71.38;96954.44;4993142;28;20034;-63
2022/04/15 04:01:38;;;;;;;3.95;2.72;;;;;;;3.12;71.25;96957.03;4993377;28;20046;-64
2022/04/15 04:04:04;;;;;;;9.63;2.60;;;;;;;3.22;71.00;96954.44;4993677;28;20465;-65
2022/04/15 04:06:29;;;;;;;6.15;2.53;;;;;;;3.30;70.66;96950.09;4993828;28;20018;-64
2022/04/15 04:08:55;;;;;;;4.05;2.58;;;;;;;3.44;70.61;96956.94;4993522;28;20026;-64
2022/04/15 04:11:21;;;;;;;4.75;2.42;;;;;;;3.47;70.83;96947.47;4993720;28;20041;-64
2022/04/15 04:13:47;;;;;;;7.90;2.55;;;;;;;3.50;70.58;96944.88;4993633;28;20026;-63
2022/04/15 04:16:13;;;;;;;4.30;2.63;;;;;;;3.67;70.52;96952.56;4993652;28;20388;-64
2022/04/15 04:18:39;;;;;;;4.30;2.45;;;;;;;3.91;70.07;96949.84;4993732;28;20029;-64
2022/04/15 04:21:05;;;;;;;3.08;1.90;;;;;;;4.13;69.59;96942.84;4993630;28;20018;-63
2022/04/15 04:23:31;;;;;;;2.65;2.38;;;;;;;4.35;68.72;96950.50;4993537;28;20025;-64
2022/04/15 04:25:56;;;;;;;8.13;2.30;;;;;;;4.62;68.17;96952.88;4993681;28;20141;-64
2022/04/15 04:28:22;;;;;;;3.65;2.40;;;;;;;4.91;67.79;96950.03;4993771;28;20022;-64
2022/04/15 04:30:48;;;;;;;3.53;2.28;;;;;;;5.30;67.40;96951.44;4993462;28;20038;-64
2022/04/15 04:33:13;;;;;;;4.20;2.30;;;;;;;5.72;66.16;96952.69;4993651;28;20041;-64
2022/04/15 04:35:39;;;;;;;4.30;2.53;;;;;;;6.13;64.85;96953.06;4993462;28;20026;-65
2022/04/15 04:38:06;;;;;;;3.40;2.10;;;;;;;6.58;64.00;96955.03;4993591;28;20057;-65
2022/04/15 04:40:35;;;;;;;6.13;2.03;;;;;;;7.04;62.23;96955.16;4993071;28;20043;-65
2022/04/15 04:43:02;;;;;;;5.07;1.90;;;;;;;7.51;61.32;96962.13;4993446;28;20502;-64
2022/04/15 04:45:29;;;;;;;3.42;2.13;;;;;;;7.98;59.34;96956.88;4993457;28;20026;-65
2022/04/15 04:47:56;;;;;;;6.20;2.08;;;;;;;8.45;58.35;96954.13;4993510;28;20022;-65
2022/04/15 04:50:22;;;;;;;7.13;2.20;;;;;;;8.92;57.39;96953.06;4993449;28;20026;-65
2022/04/15 04:52:48;;;;;;;5.00;2.10;;;;;;;9.47;56.46;96968.19;4976210;28;20018;-66
2022/04/15 04:55:15;;;;;;;5.18;1.98;;;;;;;9.95;54.40;96959.94;4993351;28;20085;-65
2022/04/15 04:57:42;;;;;;;4.07;2.28;;;;;;;10.36;55.14;96964.84;4993223;28;20101;-64
2022/04/15 05:00:10;;;;;;;6.53;1.95;;;;;;;10.79;54.55;96967.91;4993345;28;20050;-65
2022/04/15 05:02:36;;;;;;;3.58;1.92;;;;;;;11.26;52.54;96966.41;4992756;28;20401;-64
2022/04/15 05:05:03;;;;;;;2.50;1.92;;;;;;;11.71;48.48;96964.81;4993276;28;20026;-64
2022/04/15 05:07:29;;;;;;;3.17;1.92;;;;;;;12.29;51.23;96962.78;4993249;28;20034;-64
2022/04/15 05:09:54;;;;;;;4.05;2.08;;;;;;;12.79;52.36;96960.81;4993262;28;20388;-63
2022/04/15 05:12:20;;;;;;;4.20;1.83;;;;;;;13.06;49.74;96963.25;4995908;28;20484;-64
2022/04/15 05:14:46;;;;;;;5.00;1.80;;;;;;;13.45;49.29;96977.38;4996701;28;20023;-64
2022/04/15 05:17:12;;;;;;;2.38;2.00;;;;;;;13.88;47.76;96966.81;4996771;28;20057;-64
2022/04/15 05:19:38;;;;;;;3.30;1.70;;;;;;;14.37;48.07;96962.00;4996572;28;20026;-63
2022/04/15 05:22:04;;;;;;;3.70;2.08;;;;;;;14.83;44.45;96961.63;4996638;28;20030;-63
2022/04/15 05:24:30;;;;;;;5.00;1.90;;;;;;;15.13;42.19;96960.19;4996597;28;20072;-63
2022/04/15 05:26:56;;;;;;;3.22;2.28;;;;;;;15.61;42.58;96962.19;4996492;28;20030;-63
2022/04/15 05:29:22;;;;;;;7.53;1.98;;;;;;;16.07;40.07;96956.31;4996313;28;20026;-64
2022/04/15 05:31:48;;;;;;;2.47;1.80;;;;;;;16.50;41.61;96963.66;4996281;28;20025;-64
2022/04/15 05:34:13;;;;;;;2.55;2.00;;;;;;;16.83;39.97;96967.16;4996468;28;20076;-65
2022/04/15 05:36:39;;;;;;;3.67;2.00;;;;;;;17.30;37.65;96964.50;4996384;28;20022;-64
2022/04/15 05:39:04;;;;;;;4.93;2.15;;;;;;;17.72;39.07;96962.06;4996031;28;20507;-64
2022/04/15 05:41:30;;;;;;;8.77;5.93;;;;;;;18.04;38.98;96961.91;4996406;28;20077;-64
2022/04/15 05:43:58;;;;;;;3.58;2.78;;;;;;;18.24;38.64;96966.94;4996189;28;20029;-64
2022/04/15 05:46:24;;;;;;;4.10;2.55;;;;;;;18.63;37.20;96956.56;4996200;28;20460;-64
2022/04/15 05:48:50;;;;;;;3.50;2.30;;;;;;;18.94;34.70;96954.56;4996068;28;20026;-64
2022/04/15 05:51:16;;;;;;;2.67;2.22;;;;;;;19.35;32.28;96957.25;4996103;28;20049;-64
2022/04/15 05:53:41;;;;;;;2.33;1.90;;;;;;;19.72;30.46;96962.69;4996022;28;20417;-63
2022/04/15 05:56:07;;;;;;;2.85;1.92;;;;;;;20.01;32.02;96957.19;4996076;28;20050;-64
2022/04/15 05:58:33;;;;;;;5.30;2.10;;;;;;;20.18;31.78;96956.00;4995925;28;20030;-63
2022/04/15 06:00:58;;;;;;;3.85;2.05;;;;;;;20.39;31.63;96959.88;4995815;28;20027;-63
2022/04/15 06:03:24;;;;;;;3.95;2.15;;;;;;;20.65;30.59;96954.50;4995804;28;20524;-64
2022/04/15 06:05:50;;;;;;;2.85;2.15;;;;;;;20.87;29.55;96952.94;4995716;28;20030;-64
2022/04/15 06:08:16;;;;;;;2.42;1.90;;;;;;;21.07;29.23;96954.16;4995774;28;20109;-65
2022/04/15 06:10:42;;;;;;;3.33;1.92;;;;;;;21.24;29.30;96954.69;4995832;28;20062;-64
2022/04/15 06:13:19;;;;;;;4.63;2.10;;;;;;;21.35;29.37;96960.06;4995724;28;20035;-65
2022/04/15 06:15:53;;;;;;;3.40;2.30;;;;;;;21.51;28.27;96951.75;4995673;28;20092;-64
2022/04/15 06:18:22;;;;;;;3.35;1.65;;;;;;;21.76;27.60;96946.41;4995682;28;20030;-64
2022/04/15 06:20:48;;;;;;;1.60;1.50;;;;;;;22.02;27.60;96957.66;4995667;28;20106;-64
2022/04/15 06:23:15;;;;;;;3.75;1.83;;;;;;;21.95;28.19;96959.13;4994605;28;20451;-65
2022/04/15 06:25:41;;;;;;;3.10;2.08;;;;;;;22.00;27.57;96958.78;4995462;28;20054;-64
2022/04/15 06:28:07;;;;;;;4.05;2.17;;;;;;;22.04;27.97;96958.41;4995374;28;20037;-65
2022/04/15 06:30:33;;;;;;;4.03;2.00;;;;;;;22.19;26.84;96959.00;4994707;28;20034;-64
2022/04/15 06:32:58;;;;;;;2.53;1.80;;;;;;;22.33;27.33;96959.72;4995389;28;20076;-63
2022/04/15 06:35:24;;;;;;;3.03;1.80;;;;;;;22.43;26.74;96958.00;4995282;28;20022;-64
2022/04/15 06:37:49;;;;;;;2.90;1.80;;;;;;;22.50;26.55;96960.19;4995270;28;20389;-65
2022/04/15 06:40:15;;;;;;;6.13;2.10;;;;;;;22.59;27.02;96959.47;4994867;28;20046;-64
2022/04/15 06:42:41;;;;;;;4.10;2.20;;;;;;;22.32;26.88;96961.56;4995153;28;20029;-65
2022/04/15 06:45:07;;;;;;;3.20;1.88;;;;;;;22.47;26.81;96959.47;4995278;28;20030;-64
2022/04/15 06:47:32;;;;;;;3.97;1.85;;;;;;;22.71;27.08;96958.50;4995125;28;20412;-64
2022/04/15 06:49:58;;;;;;;2.72;2.00;;;;;;;22.55;28.10;96958.84;4994896;28;20381;-64
2022/04/15 06:52:24;;;;;;;2.78;1.92;;;;;;;22.93;26.72;96958.53;4995007;28;20101;-63
2022/04/15 06:54:49;;;;;;;2.42;1.75;;;;;;;23.17;24.91;96968.16;4994867;28;20396;-63
2022/04/15 06:57:15;;;;;;;3.20;1.60;;;;;;;23.41;24.60;96959.09;4994938;28;20023;-64
2022/04/15 06:59:42;;;;;;;2.55;1.35;;;;;;;23.33;24.23;96957.91;4994724;28;20022;-63
2022/04/15 07:02:08;;;;;;;2.85;1.40;;;;;;;23.29;23.63;96955.63;4994802;28;20049;-64
2022/04/15 07:04:34;;;;;;;4.15;1.58;;;;;;;23.44;25.37;96959.72;4994778;28;20384;-64
2022/04/15 07:07:00;;;;;;;3.47;1.48;;;;;;;23.25;26.42;96963.03;4994650;28;20483;-64
2022/04/15 07:09:26;;;;;;;3.58;1.70;;;;;;;23.46;25.43;96954.25;4994548;28;20034;-65
2022/04/15 07:11:52;;;;;;;2.20;1.88;;;;;;;23.45;24.92;96958.72;4994564;28;20535;-63
2022/04/15 07:14:17;;;;;;;3.03;1.60;;;;;;;23.01;25.85;96953.44;4994827;28;20054;-64
2022/04/15 07:16:44;;;;;;;4.22;1.88;;;;;;;22.80;26.92;96959.56;4994517;28;20034;-64
2022/04/15 07:19:09;;;;;;;2.10;1.70;;;;;;;22.50;26.25;96965.50;4994585;28;20511;-64
2022/04/15 07:21:35;;;;;;;4.03;1.85;;;;;;;22.62;25.03;96959.25;4994510;28;20058;-63
2022/04/15 07:24:02;;;;;;;2.20;1.73;;;;;;;22.80;26.44;96958.72;4994363;28;20027;-63
2022/04/15 07:26:28;;;;;;;3.65;2.40;;;;;;;23.13;25.89;96956.91;4994345;28;20030;-63
2022/04/15 07:28:54;;;;;;;3.10;2.22;;;;;;;23.18;26.24;96959.19;4994081;28;20034;-64
2022/04/15 07:31:19;;;;;;;6.07;2.10;;;;;;;22.99;27.13;96959.88;4994148;28;20026;-63
2022/04/15 07:33:48;;;;;;;2.53;1.98;;;;;;;22.91;26.57;96953.31;4994044;28;20022;-64
2022/04/15 07:38:58;;;;;;;3.92;2.53;;;;;;;22.70;26.32;96956.78;4994214;28;20049;-64
2022/04/15 07:41:23;;;;;;;3.33;2.03;;;;;;;22.82;27.02;96946.09;4994119;28;20026;-64
2022/04/15 07:43:49;;;;;;;4.60;2.20;;;;;;;22.53;26.93;96960.81;4994041;28;20026;-65
2022/04/15 07:46:18;;;;;;;2.58;2.10;;;;;;;22.40;24.88;96954.75;4994051;28;20019;-64
2022/04/15 07:48:43;;;;;;;5.03;1.70;;;;;;;22.43;26.34;96960.66;4994011;28;20034;-64
2022/04/15 07:51:10;;;;;;;3.75;2.28;;;;;;;22.42;27.80;96958.13;4994076;28;20377;-65
2022/04/15 07:53:36;;;;;;;4.20;2.33;;;;;;;22.45;26.36;96964.06;4993805;28;20053;-64
2022/04/15 07:56:02;;;;;;;4.90;1.90;;;;;;;22.24;29.46;96953.31;4993758;28;20050;-65
2022/04/15 07:58:28;;;;;;;6.18;1.92;;;;;;;22.30;30.09;96959.94;4993922;28;20030;-63
2022/04/15 08:00:54;;;;;;;4.32;2.55;;;;;;;22.56;28.34;96952.56;4993885;28;20031;-63
2022/04/15 08:03:21;;;;;;;5.90;2.00;;;;;;;22.69;28.63;96943.56;4993916;28;20076;-64
2022/04/15 08:05:47;;;;;;;6.05;2.70;;;;;;;22.56;27.84;96949.91;4993785;28;20030;-65
2022/04/15 08:08:13;;;;;;;4.53;2.35;;;;;;;22.40;26.25;96955.63;4993749;28;20028;-64
2022/04/15 08:10:38;;;;;;;3.58;2.28;;;;;;;22.46;27.54;96955.09;4993649;28;20109;-64
2022/04/15 08:13:04;;;;;;;4.78;2.42;;;;;;;22.53;28.88;96944.81;4993652;28;20030;-64
2022/04/15 08:15:30;;;;;;;5.13;2.40;;;;;;;22.58;28.91;96942.63;4993642;28;20019;-64
2022/04/15 08:17:56;;;;;;;6.07;2.45;;;;;;;22.34;28.31;96946.28;4993588;28;20432;-64
2022/04/15 08:20:22;;;;;;;6.85;2.72;;;;;;;22.19;29.23;96944.84;4993566;28;20106;-64
2022/04/15 08:22:47;;;;;;;4.30;2.42;;;;;;;22.19;28.97;96943.00;4993593;28;20101;-64
2022/04/15 08:25:13;;;;;;;6.63;3.00;;;;;;;22.20;27.49;96939.41;4993813;28;20053;-64
2022/04/15 08:27:38;;;;;;;5.05;2.63;;;;;;;22.26;29.51;96935.41;4976337;28;20021;-64
2022/04/15 08:30:04;;;;;;;3.92;2.63;;;;;;;22.24;30.08;96936.50;4993399;28;20121;-64
2022/04/15 08:32:33;;;;;;;5.30;2.50;;;;;;;22.46;27.88;96938.28;4993558;28;20070;-64
2022/04/15 08:35:07;;;;;;;4.28;2.65;;;;;;;22.34;30.66;96934.78;4993720;28;20346;-64
2022/04/15 08:37:33;;;;;;;8.45;2.50;;;;;;;22.14;26.60;96931.88;4993578;28;20066;-64
2022/04/15 08:40:00;;;;;;;4.35;2.63;;;;;;;22.04;28.58;96931.78;4993348;28;20074;-64
2022/04/15 08:42:26;;;;;;;4.97;2.72;;;;;;;21.54;27.27;96932.91;4993542;28;20030;-64
2022/04/15 08:44:53;;;;;;;4.35;2.58;;;;;;;21.45;26.90;96922.94;4993355;28;20041;-64
2022/04/15 08:47:20;;;;;;;7.05;2.53;;;;;;;21.66;29.72;96923.13;4996203;28;20041;-64
2022/04/15 08:49:47;;;;;;;5.18;2.85;;;;;;;21.67;29.76;96916.81;4997119;28;20026;-63
2022/04/15 08:52:18;;;;;;;3.00;2.50;;;;;;;21.94;31.53;96909.47;4997262;28;20023;-64
2022/04/15 08:54:44;;;;;;;6.40;2.33;;;;;;;22.14;28.40;96905.25;4997151;28;20056;-64
2022/04/15 08:57:10;;;;;;;3.60;2.40;;;;;;;22.45;29.23;96909.91;4997084;28;20057;-64
2022/04/15 08:59:40;;;;;;;24.15;16.17;;;;;;;22.41;27.61;96911.16;4997069;28;20468;-64
2022/04/15 09:02:06;;;;;;;4.25;2.20;;;;;;;22.28;27.99;96901.50;4997084;28;20408;-64
2022/04/15 09:04:32;;;;;;;4.32;2.08;;;;;;;22.33;28.81;96906.44;4997004;28;20018;-64
2022/04/15 09:07:00;;;;;;;4.20;2.17;;;;;;;22.46;28.05;96896.47;4996920;28;20034;-64
2022/04/15 09:09:30;;;;;;;5.82;2.50;;;;;;;22.27;33.19;96901.63;4996688;28;20037;-64
2022/04/15 09:11:58;;;;;;;3.30;2.00;;;;;;;22.55;28.74;96902.03;4996831;28;20018;-64
2022/04/15 09:14:24;;;;;;;3.60;2.20;;;;;;;22.83;28.27;96894.47;4996725;28;20031;-64
2022/04/15 09:16:50;;;;;;;6.95;2.42;;;;;;;22.73;28.35;96902.38;4996890;28;20105;-64
2022/04/15 09:19:18;;;;;;;5.00;2.20;;;;;;;22.30;26.28;96898.69;4996615;28;20473;-64
2022/04/15 09:21:54;;;;;;;4.97;2.10;;;;;;;22.18;29.45;96892.53;4996662;28;20033;-64
2022/04/15 09:24:34;;;;;;;4.95;2.20;;;;;;;22.17;27.69;96893.50;4996663;28;20085;-63
2022/04/15 09:27:06;;;;;;;4.80;2.30;;;;;;;22.13;27.05;96884.06;4996498;28;20101;-64
2022/04/15 09:29:40;;;;;;;6.28;2.05;;;;;;;22.25;28.34;96884.91;4996570;28;20388;-64
2022/04/15 09:32:14;;;;;;;2.65;2.20;;;;;;;22.26;32.03;96870.59;4996506;28;20118;-64
2022/04/15 09:35:14;;;;;;;5.32;2.33;;;;;;;22.21;30.83;96882.47;4996442;28;20034;-65
2022/04/15 09:37:44;;;;;;;3.80;2.22;;;;;;;22.25;28.88;96875.09;4995831;28;20112;-64
2022/04/15 09:40:18;;;;;;;5.27;2.30;;;;;;;22.18;30.11;96876.53;4996110;28;20055;-64
2022/04/15 09:43:10;;;;;;;7.20;2.58;;;;;;;22.34;29.74;96869.00;4996412;28;20820;-65
2022/04/15 09:45:37;;;;;;;3.63;2.28;;;;;;;22.33;30.26;96869.97;4992435;28;20508;-63
2022/04/15 09:48:07;;;;;;;3.10;1.98;;;;;;;22.32;31.58;96862.97;4996150;28;20019;-64
2022/04/15 09:50:34;;;;;;;6.30;2.42;;;;;;;22.43;27.27;96861.25;4996121;28;20065;-64
2022/04/15 09:53:12;;;;;;;6.43;2.53;;;;;;;22.29;29.74;96857.88;4996169;28;20472;-64
2022/04/15 09:55:41;;;;;;;3.33;2.10;;;;;;;22.08;30.65;96857.78;4996057;28;20030;-64
2022/04/15 09:58:13;;;;;;;4.10;2.30;;;;;;;22.04;30.52;96862.53;4995934;28;20065;-64
2022/04/15 10:00:39;;;;;;;2.85;2.08;;;;;;;;;;4995898;28;20113;-64
2022/04/15 10:03:25;;;;;;;4.00;2.17;;;;;;;22.35;30.13;96845.88;4995877;28;20029;-64
2022/04/15 10:05:54;;;;;;;4.32;2.35;;;;;;;22.62;30.84;96841.09;4995856;28;20031;-65
2022/04/15 10:08:25;;;;;;;2.65;2.20;;;;;;;22.33;29.13;96838.00;4995931;28;20038;-64
2022/04/15 10:10:53;;;;;;;5.97;2.28;;;;;;;22.30;28.57;96832.94;4995721;28;20076;-64
2022/04/15 10:13:20;;;;;;;4.10;2.60;;;;;;;22.30;29.28;96834.75;4995875;28;20030;-64
2022/04/15 10:15:49;;;;;;;4.95;2.38;;;;;;;22.12;30.81;96827.28;4995733;28;20029;-65
2022/04/15 10:18:15;;;;;;;2.60;2.03;;;;;;;21.94;30.67;96822.47;4995735;28;20380;-64
2022/04/15 10:20:42;;;;;;;5.18;2.40;;;;;;;22.08;30.52;96821.38;4995701;28;20029;-64
2022/04/15 10:23:11;;;;;;;3.67;2.03;;;;;;;22.13;31.11;96818.34;4995509;28;20030;-65
2022/04/15 10:25:42;;;;;;;2.60;2.00;;;;;;;22.19;30.29;96807.16;4995421;28;20109;-63
2022/04/15 10:28:13;;;;;;;2.33;2.13;;;;;;;22.38;31.55;96812.81;4995605;28;20105;-63
2022/04/15 10:30:50;;;;;;;2.55;1.67;;;;;;;22.50;33.02;96816.28;4995400;28;20370;-64
2022/04/15 10:33:42;;;;;;;5.88;2.38;;;;;;;22.37;29.72;96805.78;4995511;28;20117;-64
2022/04/15 10:36:24;;;;;;;3.58;2.30;;;;;;;22.27;31.00;96803.06;4991809;28;20496;-65
2022/04/15 10:39:09;;;;;;;3.47;2.20;;;;;;;22.03;30.24;96802.25;4995077;28;20041;-64
2022/04/15 10:41:44;;;;;;;5.72;2.47;;;;;;;22.24;32.32;96803.28;4995337;28;20034;-63
2022/04/15 10:44:11;;;;;;;3.10;2.35;;;;;;;22.31;30.00;96796.50;4995213;28;20030;-63
2022/04/15 10:46:37;;;;;;;3.83;2.20;;;;;;;;;;4995192;28;20106;-64
2022/04/15 10:49:19;;;;;;;4.30;2.00;;;;;;;22.03;31.14;96790.75;4994981;28;20455;-63
2022/04/15 10:51:44;;;;;;;4.20;2.58;;;;;;;22.24;30.08;96784.66;4995126;28;20070;-64
2022/04/15 10:54:32;;;;;;;3.60;2.38;;;;;;;22.17;30.74;96790.47;4994909;28;20038;-64
2022/04/15 10:57:03;;;;;;;5.10;2.15;;;;;;;22.14;29.75;96788.06;4995015;28;20061;-63
2022/04/15 11:02:17;;;;;;;2.95;1.98;;;;;;;22.38;30.86;96780.84;4994831;28;20149;-64
2022/04/15 11:04:47;;;;;;;7.20;2.03;;;;;;;22.49;29.23;96783.47;4994798;28;20392;-64
2022/04/15 11:07:14;;;;;;;;;;;;;;;22.71;29.54;96776.38;4995305;28;20030;-65
2022/04/15 11:09:40;;;;;;;3.17;2.50;;;;;;;22.64;30.11;96778.72;4994165;28;20287;-64
2022/04/15 11:12:06;;;;;;;5.88;2.85;;;;;;;22.72;29.46;96770.03;4994577;28;20019;-63
2022/04/15 11:14:35;;;;;;;3.47;2.60;;;;;;;22.75;31.81;96782.28;4977147;28;20384;-64
2022/04/15 11:17:01;;;;;;;5.57;3.00;;;;;;;22.70;29.11;96769.34;4994602;28;20069;-63
2022/04/15 11:19:27;;;;;;;3.53;2.75;;;;;;;22.49;29.25;96772.81;4994548;28;20030;-65
2022/04/15 11:21:54;;;;;;;3.17;2.50;;;;;;;22.29;27.70;96763.78;4994347;28;20030;-64
2022/04/15 11:24:22;;;;;;;5.25;2.33;;;;;;;22.25;29.00;96765.88;4994443;28;20030;-65
2022/04/15 11:26:48;;;;;;;2.92;2.50;;;;;;;22.50;28.00;96769.16;4994314;28;20057;-64
2022/04/15 11:29:14;;;;;;;5.05;2.10;;;;;;;22.49;26.09;96772.81;4994289;28;20046;-64
2022/04/15 11:31:49;;;;;;;3.83;2.20;;;;;;;22.27;28.74;96763.09;4994286;28;20026;-64
2022/04/15 11:34:20;;;;;;;4.15;2.00;;;;;;;22.33;28.41;96752.75;4994305;28;20030;-65
2022/04/15 11:36:45;;;;;;;;;;;;;;;22.34;26.94;96754.44;4994536;28;20522;-66
2022/04/15 11:39:14;;;;;;;3.85;1.77;;;;;;;22.41;26.52;96754.78;4994167;28;19917;-64
2022/04/15 11:41:49;;;;;;;4.65;2.10;;;;;;;22.44;28.30;96759.88;4994174;28;20041;-64
2022/04/15 11:44:16;;;;;;;2.83;1.80;;;;;;;22.49;28.91;96748.81;4994137;28;20023;-65
2022/04/15 11:46:47;;;;;;;6.78;2.35;;;;;;;22.45;25.90;96739.38;4993921;28;20038;-65